sensor_id;sensor_type;location;lat;lon;timestamp;temperature;humidity
22635;DHT22;11484;50.858;4.384;2023-11-19T00:00:34;14.80;99.90
22635;DHT22;11484;50.858;4.384;2023-11-19T00:02:59;14.80;99.90
22635;DHT22;11484;50.858;4.384;2023-11-19T00:05:25;14.80;99.90
22635;DHT22;11484;50.858;4.384;2023-11-19T00:07:51;14.70;99.90
22635;DHT22;11484;50.858;4.384;2023-11-19T00:10:17;14.80;99.90
22635;DHT22;11484;50.858;4.384;2023-11-19T00:12:46;14.70;99.90
22635;DHT22;11484;50.858;4.384;2023-11-19T00:15:12;14.80;99.90
22635;DHT22;11484;50.858;4.384;2023-11-19T00:17:38;14.80;99.90
22635;DHT22;11484;50.858;4.384;2023-11-19T00:20:07;14.80;99.90
22635;DHT22;11484;50.858;4.384;2023-11-19T00:22:33;14.80;99.90
22635;DHT22;11484;50.858;4.384;2023-11-19T00:24:59;14.80;99.90
22635;DHT22;11484;50.858;4.384;2023-11-19T00:27:25;14.80;99.90
22635;DHT22;11484;50.858;4.384;2023-11-19T00:29:50;14.80;99.90
22635;DHT22;11484;50.858;4.384;2023-11-19T00:32:16;14.80;99.90
22635;DHT22;11484;50.858;4.384;2023-11-19T00:34:43;14.80;99.90
22635;DHT22;11484;50.858;4.384;2023-11-19T00:37:09;14.90;99.90
22635;DHT22;11484;50.858;4.384;2023-11-19T00:39:35;14.90;99.90
22635;DHT22;11484;50.858;4.384;2023-11-19T00:42:00;15.00;99.90
22635;DHT22;11484;50.858;4.384;2023-11-19T00:44:26;15.00;99.90
22635;DHT22;11484;50.858;4.384;2023-11-19T00:46:51;14.90;99.90
22635;DHT22;11484;50.858;4.384;2023-11-19T00:49:17;14.80;99.90
22635;DHT22;11484;50.858;4.384;2023-11-19T00:51:42;14.70;99.90
22635;DHT22;11484;50.858;4.384;2023-11-19T00:54:08;14.70;99.90
22635;DHT22;11484;50.858;4.384;2023-11-19T00:56:34;14.70;99.90
22635;DHT22;11484;50.858;4.384;2023-11-19T00:58:59;14.70;99.90
22635;DHT22;11484;50.858;4.384;2023-11-19T01:01:25;14.60;99.90
22635;DHT22;11484;50.858;4.384;2023-11-19T01:03:51;14.60;99.90
22635;DHT22;11484;50.858;4.384;2023-11-19T01:06:26;14.70;99.90
22635;DHT22;11484;50.858;4.384;2023-11-19T01:08:51;14.70;99.90
22635;DHT22;11484;50.858;4.384;2023-11-19T01:11:21;14.80;99.90
22635;DHT22;11484;50.858;4.384;2023-11-19T01:13:47;14.90;99.90
22635;DHT22;11484;50.858;4.384;2023-11-19T01:16:13;14.80;99.90
22635;DHT22;11484;50.858;4.384;2023-11-19T01:18:39;14.80;99.90
22635;DHT22;11484;50.858;4.384;2023-11-19T01:21:04;14.90;99.90
22635;DHT22;11484;50.858;4.384;2023-11-19T01:23:30;14.90;99.90
22635;DHT22;11484;50.858;4.384;2023-11-19T01:25:56;14.90;99.90
22635;DHT22;11484;50.858;4.384;2023-11-19T01:28:21;14.90;99.90
22635;DHT22;11484;50.858;4.384;2023-11-19T01:30:50;14.90;99.90
22635;DHT22;11484;50.858;4.384;2023-11-19T01:33:15;14.90;99.90
22635;DHT22;11484;50.858;4.384;2023-11-19T01:35:41;14.90;99.90
22635;DHT22;11484;50.858;4.384;2023-11-19T01:38:06;14.90;99.90
22635;DHT22;11484;50.858;4.384;2023-11-19T01:40:34;14.90;99.90
22635;DHT22;11484;50.858;4.384;2023-11-19T01:42:59;14.90;99.90
22635;DHT22;11484;50.858;4.384;2023-11-19T01:45:28;14.90;99.90
22635;DHT22;11484;50.858;4.384;2023-11-19T01:47:54;14.80;99.90
22635;DHT22;11484;50.858;4.384;2023-11-19T01:50:20;14.80;99.90
22635;DHT22;11484;50.858;4.384;2023-11-19T01:52:46;14.80;99.90
22635;DHT22;11484;50.858;4.384;2023-11-19T01:55:12;14.70;99.90
22635;DHT22;11484;50.858;4.384;2023-11-19T01:57:38;14.60;99.90
22635;DHT22;11484;50.858;4.384;2023-11-19T02:00:06;14.60;99.90
22635;DHT22;11484;50.858;4.384;2023-11-19T02:02:32;14.60;99.90
22635;DHT22;11484;50.858;4.384;2023-11-19T02:04:58;14.70;99.90
22635;DHT22;11484;50.858;4.384;2023-11-19T02:07:23;14.80;99.90
22635;DHT22;11484;50.858;4.384;2023-11-19T02:09:49;14.80;99.90
22635;DHT22;11484;50.858;4.384;2023-11-19T02:12:15;14.70;99.90
22635;DHT22;11484;50.858;4.384;2023-11-19T02:14:40;14.60;99.90
22635;DHT22;11484;50.858;4.384;2023-11-19T02:17:06;14.60;99.90
22635;DHT22;11484;50.858;4.384;2023-11-19T02:19:31;14.60;99.90
22635;DHT22;11484;50.858;4.384;2023-11-19T02:21:57;14.60;99.90
22635;DHT22;11484;50.858;4.384;2023-11-19T02:24:22;14.50;99.90
22635;DHT22;11484;50.858;4.384;2023-11-19T02:26:55;14.50;99.90
22635;DHT22;11484;50.858;4.384;2023-11-19T02:29:24;14.50;99.90
22635;DHT22;11484;50.858;4.384;2023-11-19T02:31:50;14.50;99.90
22635;DHT22;11484;50.858;4.384;2023-11-19T02:34:15;14.40;99.90
22635;DHT22;11484;50.858;4.384;2023-11-19T02:36:41;14.40;99.90
22635;DHT22;11484;50.858;4.384;2023-11-19T02:39:07;14.50;99.90
22635;DHT22;11484;50.858;4.384;2023-11-19T02:41:36;14.50;99.90
22635;DHT22;11484;50.858;4.384;2023-11-19T02:44:02;14.50;99.90
22635;DHT22;11484;50.858;4.384;2023-11-19T02:46:28;14.50;99.90
22635;DHT22;11484;50.858;4.384;2023-11-19T02:48:54;14.40;99.90
22635;DHT22;11484;50.858;4.384;2023-11-19T02:51:19;14.50;99.90
22635;DHT22;11484;50.858;4.384;2023-11-19T02:53:45;14.40;99.90
22635;DHT22;11484;50.858;4.384;2023-11-19T02:56:13;14.20;99.90
22635;DHT22;11484;50.858;4.384;2023-11-19T02:58:50;14.30;99.90
22635;DHT22;11484;50.858;4.384;2023-11-19T03:01:23;14.30;99.90
22635;DHT22;11484;50.858;4.384;2023-11-19T03:03:55;14.40;99.90
22635;DHT22;11484;50.858;4.384;2023-11-19T03:06:22;14.40;99.90
22635;DHT22;11484;50.858;4.384;2023-11-19T03:08:48;14.40;99.90
22635;DHT22;11484;50.858;4.384;2023-11-19T03:11:14;14.40;99.90
22635;DHT22;11484;50.858;4.384;2023-11-19T03:13:40;14.30;99.90
22635;DHT22;11484;50.858;4.384;2023-11-19T03:16:05;14.30;99.90
22635;DHT22;11484;50.858;4.384;2023-11-19T03:18:31;14.10;99.90
22635;DHT22;11484;50.858;4.384;2023-11-19T03:20:57;14.10;99.90
22635;DHT22;11484;50.858;4.384;2023-11-19T03:23:24;13.90;99.90
22635;DHT22;11484;50.858;4.384;2023-11-19T03:25:50;13.80;99.90
22635;DHT22;11484;50.858;4.384;2023-11-19T03:28:15;13.90;99.90
22635;DHT22;11484;50.858;4.384;2023-11-19T03:30:41;13.80;99.90
22635;DHT22;11484;50.858;4.384;2023-11-19T03:33:10;13.80;99.90
22635;DHT22;11484;50.858;4.384;2023-11-19T03:35:36;13.80;99.90
22635;DHT22;11484;50.858;4.384;2023-11-19T03:38:02;13.70;99.90
22635;DHT22;11484;50.858;4.384;2023-11-19T03:40:28;13.80;99.90
22635;DHT22;11484;50.858;4.384;2023-11-19T03:42:55;13.70;99.90
22635;DHT22;11484;50.858;4.384;2023-11-19T03:45:20;13.70;99.90
22635;DHT22;11484;50.858;4.384;2023-11-19T03:47:46;13.70;99.90
22635;DHT22;11484;50.858;4.384;2023-11-19T03:50:12;13.60;99.90
22635;DHT22;11484;50.858;4.384;2023-11-19T03:52:37;13.60;99.90
22635;DHT22;11484;50.858;4.384;2023-11-19T03:55:03;13.60;99.90
22635;DHT22;11484;50.858;4.384;2023-11-19T03:57:30;13.60;99.90
22635;DHT22;11484;50.858;4.384;2023-11-19T03:59:56;13.60;99.90
22635;DHT22;11484;50.858;4.384;2023-11-19T04:02:23;13.60;99.90
22635;DHT22;11484;50.858;4.384;2023-11-19T04:04:53;13.60;99.90
22635;DHT22;11484;50.858;4.384;2023-11-19T04:07:18;13.60;99.90
22635;DHT22;11484;50.858;4.384;2023-11-19T04:09:44;13.50;99.90
22635;DHT22;11484;50.858;4.384;2023-11-19T04:12:12;13.60;99.90
22635;DHT22;11484;50.858;4.384;2023-11-19T04:14:37;13.60;99.90
22635;DHT22;11484;50.858;4.384;2023-11-19T04:17:03;13.60;99.90
22635;DHT22;11484;50.858;4.384;2023-11-19T04:19:28;13.60;99.90
22635;DHT22;11484;50.858;4.384;2023-11-19T04:21:54;13.60;99.90
22635;DHT22;11484;50.858;4.384;2023-11-19T04:24:19;13.60;99.90
22635;DHT22;11484;50.858;4.384;2023-11-19T04:26:45;13.60;99.90
22635;DHT22;11484;50.858;4.384;2023-11-19T04:29:12;13.50;99.90
22635;DHT22;11484;50.858;4.384;2023-11-19T04:31:38;13.50;99.90
22635;DHT22;11484;50.858;4.384;2023-11-19T04:34:03;13.50;99.90
22635;DHT22;11484;50.858;4.384;2023-11-19T04:36:29;13.50;99.90
22635;DHT22;11484;50.858;4.384;2023-11-19T04:38:55;13.50;99.90
22635;DHT22;11484;50.858;4.384;2023-11-19T04:41:20;13.50;99.90
22635;DHT22;11484;50.858;4.384;2023-11-19T04:43:46;13.40;99.90
22635;DHT22;11484;50.858;4.384;2023-11-19T04:46:11;13.40;99.90
22635;DHT22;11484;50.858;4.384;2023-11-19T04:48:37;13.40;99.90
22635;DHT22;11484;50.858;4.384;2023-11-19T04:51:04;13.50;99.90
22635;DHT22;11484;50.858;4.384;2023-11-19T04:53:30;13.40;99.90
22635;DHT22;11484;50.858;4.384;2023-11-19T04:55:55;13.40;99.90
22635;DHT22;11484;50.858;4.384;2023-11-19T04:58:21;13.40;99.90
22635;DHT22;11484;50.858;4.384;2023-11-19T05:00:46;13.50;99.90
22635;DHT22;11484;50.858;4.384;2023-11-19T05:03:12;13.50;99.90
22635;DHT22;11484;50.858;4.384;2023-11-19T05:05:37;13.60;99.90
22635;DHT22;11484;50.858;4.384;2023-11-19T05:08:03;13.60;99.90
22635;DHT22;11484;50.858;4.384;2023-11-19T05:10:29;13.60;99.90
22635;DHT22;11484;50.858;4.384;2023-11-19T05:12:54;13.50;99.90
22635;DHT22;11484;50.858;4.384;2023-11-19T05:15:21;13.50;99.90
22635;DHT22;11484;50.858;4.384;2023-11-19T05:17:47;13.40;99.90
22635;DHT22;11484;50.858;4.384;2023-11-19T05:20:13;13.40;99.90
22635;DHT22;11484;50.858;4.384;2023-11-19T05:22:41;13.40;99.90
22635;DHT22;11484;50.858;4.384;2023-11-19T05:25:07;13.30;99.90
22635;DHT22;11484;50.858;4.384;2023-11-19T05:27:34;13.30;99.90
22635;DHT22;11484;50.858;4.384;2023-11-19T05:30:01;13.20;99.90
22635;DHT22;11484;50.858;4.384;2023-11-19T05:32:27;13.20;99.90
22635;DHT22;11484;50.858;4.384;2023-11-19T05:34:52;13.20;99.90
22635;DHT22;11484;50.858;4.384;2023-11-19T05:37:18;13.30;99.90
22635;DHT22;11484;50.858;4.384;2023-11-19T05:39:44;13.30;99.90
22635;DHT22;11484;50.858;4.384;2023-11-19T05:42:10;13.30;99.90
22635;DHT22;11484;50.858;4.384;2023-11-19T05:44:36;13.40;99.90
22635;DHT22;11484;50.858;4.384;2023-11-19T05:47:02;13.40;99.90
22635;DHT22;11484;50.858;4.384;2023-11-19T05:49:27;13.40;99.90
22635;DHT22;11484;50.858;4.384;2023-11-19T05:51:53;13.30;99.90
22635;DHT22;11484;50.858;4.384;2023-11-19T05:54:21;13.40;99.90
22635;DHT22;11484;50.858;4.384;2023-11-19T05:56:49;13.40;99.90
22635;DHT22;11484;50.858;4.384;2023-11-19T05:59:15;13.30;99.90
22635;DHT22;11484;50.858;4.384;2023-11-19T06:01:43;13.30;99.90
22635;DHT22;11484;50.858;4.384;2023-11-19T06:04:09;13.20;99.90
22635;DHT22;11484;50.858;4.384;2023-11-19T06:06:35;13.20;99.90
22635;DHT22;11484;50.858;4.384;2023-11-19T06:09:01;13.20;99.90
22635;DHT22;11484;50.858;4.384;2023-11-19T06:11:27;13.10;99.90
22635;DHT22;11484;50.858;4.384;2023-11-19T06:13:53;13.10;99.90
22635;DHT22;11484;50.858;4.384;2023-11-19T06:16:19;13.10;99.90
22635;DHT22;11484;50.858;4.384;2023-11-19T06:18:44;13.20;99.90
22635;DHT22;11484;50.858;4.384;2023-11-19T06:21:10;13.10;99.90
22635;DHT22;11484;50.858;4.384;2023-11-19T06:23:36;13.10;99.90
22635;DHT22;11484;50.858;4.384;2023-11-19T06:26:02;13.10;99.90
22635;DHT22;11484;50.858;4.384;2023-11-19T06:28:27;13.00;99.90
22635;DHT22;11484;50.858;4.384;2023-11-19T06:30:53;13.00;99.90
22635;DHT22;11484;50.858;4.384;2023-11-19T06:33:18;12.90;99.90
22635;DHT22;11484;50.858;4.384;2023-11-19T06:35:44;12.90;99.90
22635;DHT22;11484;50.858;4.384;2023-11-19T06:38:10;12.90;99.90
22635;DHT22;11484;50.858;4.384;2023-11-19T06:40:35;12.90;99.90
22635;DHT22;11484;50.858;4.384;2023-11-19T06:43:01;12.80;99.90
22635;DHT22;11484;50.858;4.384;2023-11-19T06:45:29;12.80;99.90
22635;DHT22;11484;50.858;4.384;2023-11-19T06:47:54;12.70;99.90
22635;DHT22;11484;50.858;4.384;2023-11-19T06:50:20;12.70;99.90
22635;DHT22;11484;50.858;4.384;2023-11-19T06:52:45;12.70;99.90
22635;DHT22;11484;50.858;4.384;2023-11-19T06:55:11;12.60;99.90
22635;DHT22;11484;50.858;4.384;2023-11-19T06:57:37;12.60;99.90
22635;DHT22;11484;50.858;4.384;2023-11-19T07:00:02;12.50;99.90
22635;DHT22;11484;50.858;4.384;2023-11-19T07:02:30;12.50;99.90
22635;DHT22;11484;50.858;4.384;2023-11-19T07:04:56;12.50;99.90
22635;DHT22;11484;50.858;4.384;2023-11-19T07:07:22;12.50;99.90
22635;DHT22;11484;50.858;4.384;2023-11-19T07:09:47;12.50;99.90
22635;DHT22;11484;50.858;4.384;2023-11-19T07:12:13;12.50;99.90
22635;DHT22;11484;50.858;4.384;2023-11-19T07:14:39;12.40;99.90
22635;DHT22;11484;50.858;4.384;2023-11-19T07:17:05;12.50;99.90
22635;DHT22;11484;50.858;4.384;2023-11-19T07:19:31;12.50;99.90
22635;DHT22;11484;50.858;4.384;2023-11-19T07:21:58;12.50;99.90
22635;DHT22;11484;50.858;4.384;2023-11-19T07:24:23;12.50;99.90
22635;DHT22;11484;50.858;4.384;2023-11-19T07:26:49;12.60;99.90
22635;DHT22;11484;50.858;4.384;2023-11-19T07:29:15;12.60;99.90
22635;DHT22;11484;50.858;4.384;2023-11-19T07:31:42;12.60;99.90
22635;DHT22;11484;50.858;4.384;2023-11-19T07:34:09;12.60;99.90
22635;DHT22;11484;50.858;4.384;2023-11-19T07:36:35;12.70;99.90
22635;DHT22;11484;50.858;4.384;2023-11-19T07:39:01;12.70;99.90
22635;DHT22;11484;50.858;4.384;2023-11-19T07:41:27;12.60;99.90
22635;DHT22;11484;50.858;4.384;2023-11-19T07:43:53;12.50;99.90
22635;DHT22;11484;50.858;4.384;2023-11-19T07:46:19;12.50;99.90
22635;DHT22;11484;50.858;4.384;2023-11-19T07:48:45;12.50;99.90
22635;DHT22;11484;50.858;4.384;2023-11-19T07:51:12;12.60;99.90
22635;DHT22;11484;50.858;4.384;2023-11-19T07:53:38;12.60;99.90
22635;DHT22;11484;50.858;4.384;2023-11-19T07:56:05;12.70;99.90
22635;DHT22;11484;50.858;4.384;2023-11-19T07:58:30;12.70;99.90
22635;DHT22;11484;50.858;4.384;2023-11-19T08:00:56;12.80;99.90
22635;DHT22;11484;50.858;4.384;2023-11-19T08:03:21;12.90;99.90
22635;DHT22;11484;50.858;4.384;2023-11-19T08:05:47;12.90;99.90
22635;DHT22;11484;50.858;4.384;2023-11-19T08:08:13;12.90;99.90
22635;DHT22;11484;50.858;4.384;2023-11-19T08:10:42;12.90;99.90
22635;DHT22;11484;50.858;4.384;2023-11-19T08:13:08;12.90;99.90
22635;DHT22;11484;50.858;4.384;2023-11-19T08:15:34;12.90;99.90
22635;DHT22;11484;50.858;4.384;2023-11-19T08:17:59;13.00;99.90
22635;DHT22;11484;50.858;4.384;2023-11-19T08:20:25;13.00;99.90
22635;DHT22;11484;50.858;4.384;2023-11-19T08:22:51;13.00;99.90
22635;DHT22;11484;50.858;4.384;2023-11-19T08:25:16;13.10;99.90
22635;DHT22;11484;50.858;4.384;2023-11-19T08:27:42;13.10;99.90
22635;DHT22;11484;50.858;4.384;2023-11-19T08:30:08;13.00;99.90
22635;DHT22;11484;50.858;4.384;2023-11-19T08:32:34;13.00;99.90
22635;DHT22;11484;50.858;4.384;2023-11-19T08:34:59;13.10;99.90
22635;DHT22;11484;50.858;4.384;2023-11-19T08:37:25;13.20;99.90
22635;DHT22;11484;50.858;4.384;2023-11-19T08:39:50;13.30;99.90
22635;DHT22;11484;50.858;4.384;2023-11-19T08:42:16;13.20;99.90
22635;DHT22;11484;50.858;4.384;2023-11-19T08:44:42;13.30;99.90
22635;DHT22;11484;50.858;4.384;2023-11-19T08:47:12;13.40;99.90
22635;DHT22;11484;50.858;4.384;2023-11-19T08:49:38;13.40;99.90
22635;DHT22;11484;50.858;4.384;2023-11-19T08:52:04;13.50;99.90
22635;DHT22;11484;50.858;4.384;2023-11-19T08:54:30;13.60;99.90
22635;DHT22;11484;50.858;4.384;2023-11-19T08:56:55;13.50;99.90
22635;DHT22;11484;50.858;4.384;2023-11-19T08:59:21;13.40;99.90
22635;DHT22;11484;50.858;4.384;2023-11-19T09:01:47;13.30;99.90
22635;DHT22;11484;50.858;4.384;2023-11-19T09:04:12;13.40;99.90
22635;DHT22;11484;50.858;4.384;2023-11-19T09:06:39;13.50;99.90
22635;DHT22;11484;50.858;4.384;2023-11-19T09:09:05;13.60;99.90
22635;DHT22;11484;50.858;4.384;2023-11-19T09:11:31;13.70;99.90
22635;DHT22;11484;50.858;4.384;2023-11-19T09:13:57;13.80;99.90
22635;DHT22;11484;50.858;4.384;2023-11-19T09:16:22;13.80;99.90
22635;DHT22;11484;50.858;4.384;2023-11-19T09:18:48;13.70;99.90
22635;DHT22;11484;50.858;4.384;2023-11-19T09:21:13;13.80;99.90
22635;DHT22;11484;50.858;4.384;2023-11-19T09:23:39;13.90;99.90
22635;DHT22;11484;50.858;4.384;2023-11-19T09:26:05;13.90;99.90
22635;DHT22;11484;50.858;4.384;2023-11-19T09:28:31;13.90;99.90
22635;DHT22;11484;50.858;4.384;2023-11-19T09:30:57;13.90;99.90
22635;DHT22;11484;50.858;4.384;2023-11-19T09:33:24;13.90;99.90
22635;DHT22;11484;50.858;4.384;2023-11-19T09:35:50;13.80;99.90
22635;DHT22;11484;50.858;4.384;2023-11-19T09:38:16;13.70;99.90
22635;DHT22;11484;50.858;4.384;2023-11-19T09:40:42;13.70;99.90
22635;DHT22;11484;50.858;4.384;2023-11-19T09:43:15;13.60;99.90
22635;DHT22;11484;50.858;4.384;2023-11-19T09:45:46;13.70;99.90
22635;DHT22;11484;50.858;4.384;2023-11-19T09:48:14;13.70;99.90
22635;DHT22;11484;50.858;4.384;2023-11-19T09:50:40;13.70;99.90
22635;DHT22;11484;50.858;4.384;2023-11-19T09:53:05;13.80;99.90
22635;DHT22;11484;50.858;4.384;2023-11-19T09:55:31;14.00;99.90
22635;DHT22;11484;50.858;4.384;2023-11-19T09:57:57;14.20;99.90
22635;DHT22;11484;50.858;4.384;2023-11-19T10:00:26;14.20;99.90
22635;DHT22;11484;50.858;4.384;2023-11-19T10:02:52;13.90;99.90
22635;DHT22;11484;50.858;4.384;2023-11-19T10:05:19;13.80;99.90
22635;DHT22;11484;50.858;4.384;2023-11-19T10:07:45;13.70;99.90
22635;DHT22;11484;50.858;4.384;2023-11-19T10:10:12;13.80;99.90
22635;DHT22;11484;50.858;4.384;2023-11-19T10:12:40;13.70;99.90
22635;DHT22;11484;50.858;4.384;2023-11-19T10:15:06;13.70;99.90
22635;DHT22;11484;50.858;4.384;2023-11-19T10:17:32;13.80;99.90
22635;DHT22;11484;50.858;4.384;2023-11-19T10:19:58;13.80;99.90
22635;DHT22;11484;50.858;4.384;2023-11-19T10:22:24;13.90;99.90
22635;DHT22;11484;50.858;4.384;2023-11-19T10:24:51;14.00;99.90
22635;DHT22;11484;50.858;4.384;2023-11-19T10:27:17;14.00;99.90
22635;DHT22;11484;50.858;4.384;2023-11-19T10:29:46;14.10;99.90
22635;DHT22;11484;50.858;4.384;2023-11-19T10:32:12;14.10;99.90
22635;DHT22;11484;50.858;4.384;2023-11-19T10:34:38;14.20;99.90
22635;DHT22;11484;50.858;4.384;2023-11-19T10:37:05;14.40;99.90
22635;DHT22;11484;50.858;4.384;2023-11-19T10:39:38;14.60;99.90
22635;DHT22;11484;50.858;4.384;2023-11-19T10:42:16;14.70;99.90
22635;DHT22;11484;50.858;4.384;2023-11-19T10:44:42;14.70;99.90
22635;DHT22;11484;50.858;4.384;2023-11-19T10:47:08;14.70;99.90
22635;DHT22;11484;50.858;4.384;2023-11-19T10:49:34;14.80;99.90
22635;DHT22;11484;50.858;4.384;2023-11-19T10:52:00;14.60;99.90
22635;DHT22;11484;50.858;4.384;2023-11-19T10:54:27;14.50;99.90
22635;DHT22;11484;50.858;4.384;2023-11-19T10:56:58;14.60;99.90
22635;DHT22;11484;50.858;4.384;2023-11-19T10:59:25;14.60;99.90
22635;DHT22;11484;50.858;4.384;2023-11-19T11:01:52;14.50;99.90
22635;DHT22;11484;50.858;4.384;2023-11-19T11:04:21;14.60;99.90
22635;DHT22;11484;50.858;4.384;2023-11-19T11:06:48;14.70;99.90
22635;DHT22;11484;50.858;4.384;2023-11-19T11:09:13;14.90;99.90
22635;DHT22;11484;50.858;4.384;2023-11-19T11:11:40;14.80;99.90
22635;DHT22;11484;50.858;4.384;2023-11-19T11:14:10;14.90;99.90
22635;DHT22;11484;50.858;4.384;2023-11-19T11:16:37;14.90;99.90
22635;DHT22;11484;50.858;4.384;2023-11-19T11:19:03;14.80;99.90
22635;DHT22;11484;50.858;4.384;2023-11-19T11:21:29;14.80;99.90
22635;DHT22;11484;50.858;4.384;2023-11-19T11:24:01;14.80;99.90
22635;DHT22;11484;50.858;4.384;2023-11-19T11:29:41;14.80;99.90
22635;DHT22;11484;50.858;4.384;2023-11-19T11:39:56;14.10;99.90
22635;DHT22;11484;50.858;4.384;2023-11-19T11:50:12;14.10;99.90
22635;DHT22;11484;50.858;4.384;2023-11-19T11:55:25;14.00;99.90
22635;DHT22;11484;50.858;4.384;2023-11-19T11:57:50;14.10;99.90
22635;DHT22;11484;50.858;4.384;2023-11-19T12:00:26;14.10;99.90
22635;DHT22;11484;50.858;4.384;2023-11-19T12:02:52;14.40;99.90
22635;DHT22;11484;50.858;4.384;2023-11-19T12:05:19;14.50;99.90
22635;DHT22;11484;50.858;4.384;2023-11-19T12:07:56;14.50;99.90
22635;DHT22;11484;50.858;4.384;2023-11-19T12:10:28;14.60;99.90
22635;DHT22;11484;50.858;4.384;2023-11-19T12:12:58;14.70;99.90
22635;DHT22;11484;50.858;4.384;2023-11-19T12:15:23;14.90;99.90
22635;DHT22;11484;50.858;4.384;2023-11-19T12:17:52;14.90;99.90
22635;DHT22;11484;50.858;4.384;2023-11-19T12:20:18;14.90;99.90
22635;DHT22;11484;50.858;4.384;2023-11-19T12:22:44;14.90;99.90
22635;DHT22;11484;50.858;4.384;2023-11-19T12:25:11;14.70;99.90
22635;DHT22;11484;50.858;4.384;2023-11-19T12:27:40;14.60;99.90
22635;DHT22;11484;50.858;4.384;2023-11-19T12:30:06;14.70;99.90
22635;DHT22;11484;50.858;4.384;2023-11-19T12:32:41;14.80;99.90
22635;DHT22;11484;50.858;4.384;2023-11-19T12:35:11;14.80;99.90
22635;DHT22;11484;50.858;4.384;2023-11-19T12:37:43;14.70;99.90
22635;DHT22;11484;50.858;4.384;2023-11-19T12:42:38;14.60;99.90
22635;DHT22;11484;50.858;4.384;2023-11-19T12:45:04;14.60;99.90
22635;DHT22;11484;50.858;4.384;2023-11-19T12:47:30;14.60;99.90
22635;DHT22;11484;50.858;4.384;2023-11-19T12:49:56;14.40;99.90
22635;DHT22;11484;50.858;4.384;2023-11-19T12:52:21;14.50;99.90
22635;DHT22;11484;50.858;4.384;2023-11-19T12:54:48;14.50;99.90
22635;DHT22;11484;50.858;4.384;2023-11-19T12:57:14;14.40;99.90
22635;DHT22;11484;50.858;4.384;2023-11-19T12:59:39;14.40;99.90
22635;DHT22;11484;50.858;4.384;2023-11-19T13:02:05;14.40;99.90
22635;DHT22;11484;50.858;4.384;2023-11-19T13:04:32;14.50;99.90
22635;DHT22;11484;50.858;4.384;2023-11-19T13:06:58;14.50;99.90
22635;DHT22;11484;50.858;4.384;2023-11-19T13:09:24;14.20;99.90
22635;DHT22;11484;50.858;4.384;2023-11-19T13:11:50;14.20;99.90
22635;DHT22;11484;50.858;4.384;2023-11-19T13:14:17;14.20;99.90
22635;DHT22;11484;50.858;4.384;2023-11-19T13:16:42;14.20;99.90
22635;DHT22;11484;50.858;4.384;2023-11-19T13:19:08;14.30;99.90
22635;DHT22;11484;50.858;4.384;2023-11-19T13:21:36;14.40;99.90
22635;DHT22;11484;50.858;4.384;2023-11-19T13:24:03;14.50;99.90
22635;DHT22;11484;50.858;4.384;2023-11-19T13:26:29;14.60;99.90
22635;DHT22;11484;50.858;4.384;2023-11-19T13:28:54;14.60;99.90
22635;DHT22;11484;50.858;4.384;2023-11-19T13:31:20;14.60;99.90
22635;DHT22;11484;50.858;4.384;2023-11-19T13:33:45;14.60;99.90
22635;DHT22;11484;50.858;4.384;2023-11-19T13:36:11;14.70;99.90
22635;DHT22;11484;50.858;4.384;2023-11-19T13:38:37;14.60;99.90
22635;DHT22;11484;50.858;4.384;2023-11-19T13:41:03;14.60;99.90
22635;DHT22;11484;50.858;4.384;2023-11-19T13:43:29;14.70;99.90
22635;DHT22;11484;50.858;4.384;2023-11-19T13:45:55;14.70;99.90
22635;DHT22;11484;50.858;4.384;2023-11-19T13:48:21;14.60;99.90
22635;DHT22;11484;50.858;4.384;2023-11-19T13:50:47;14.60;99.90
22635;DHT22;11484;50.858;4.384;2023-11-19T13:53:12;14.60;99.90
22635;DHT22;11484;50.858;4.384;2023-11-19T13:55:38;14.50;99.90
22635;DHT22;11484;50.858;4.384;2023-11-19T13:58:03;14.40;99.90
22635;DHT22;11484;50.858;4.384;2023-11-19T14:00:29;14.30;99.90
22635;DHT22;11484;50.858;4.384;2023-11-19T14:02:55;14.20;99.90
22635;DHT22;11484;50.858;4.384;2023-11-19T14:05:20;14.10;99.90
22635;DHT22;11484;50.858;4.384;2023-11-19T14:07:46;14.10;99.90
22635;DHT22;11484;50.858;4.384;2023-11-19T14:10:13;14.20;99.90
22635;DHT22;11484;50.858;4.384;2023-11-19T14:12:39;14.30;99.90
22635;DHT22;11484;50.858;4.384;2023-11-19T14:15:05;14.30;99.90
22635;DHT22;11484;50.858;4.384;2023-11-19T14:17:49;14.40;99.90
22635;DHT22;11484;50.858;4.384;2023-11-19T14:20:14;14.40;99.90
22635;DHT22;11484;50.858;4.384;2023-11-19T14:22:44;14.40;99.90
22635;DHT22;11484;50.858;4.384;2023-11-19T14:25:10;14.20;99.90
22635;DHT22;11484;50.858;4.384;2023-11-19T14:27:39;14.20;99.90
22635;DHT22;11484;50.858;4.384;2023-11-19T14:30:06;14.30;99.90
22635;DHT22;11484;50.858;4.384;2023-11-19T14:32:32;14.40;99.90
22635;DHT22;11484;50.858;4.384;2023-11-19T14:34:57;14.50;99.90
22635;DHT22;11484;50.858;4.384;2023-11-19T14:37:23;14.40;99.90
22635;DHT22;11484;50.858;4.384;2023-11-19T14:39:48;14.20;99.90
22635;DHT22;11484;50.858;4.384;2023-11-19T14:42:16;14.10;99.90
22635;DHT22;11484;50.858;4.384;2023-11-19T14:44:41;14.10;99.90
22635;DHT22;11484;50.858;4.384;2023-11-19T14:47:07;14.00;99.90
22635;DHT22;11484;50.858;4.384;2023-11-19T14:49:34;13.90;99.90
22635;DHT22;11484;50.858;4.384;2023-11-19T14:52:00;13.90;99.90
22635;DHT22;11484;50.858;4.384;2023-11-19T14:54:25;13.90;99.90
22635;DHT22;11484;50.858;4.384;2023-11-19T14:56:51;14.00;99.90
22635;DHT22;11484;50.858;4.384;2023-11-19T14:59:17;14.10;99.90
22635;DHT22;11484;50.858;4.384;2023-11-19T15:01:46;14.10;99.90
22635;DHT22;11484;50.858;4.384;2023-11-19T15:04:12;14.10;99.90
22635;DHT22;11484;50.858;4.384;2023-11-19T15:06:37;14.10;99.90
22635;DHT22;11484;50.858;4.384;2023-11-19T15:09:03;14.10;99.90
22635;DHT22;11484;50.858;4.384;2023-11-19T15:11:29;14.10;99.90
22635;DHT22;11484;50.858;4.384;2023-11-19T15:13:55;14.10;99.90
22635;DHT22;11484;50.858;4.384;2023-11-19T15:16:20;14.20;99.90
22635;DHT22;11484;50.858;4.384;2023-11-19T15:18:51;14.10;99.90
22635;DHT22;11484;50.858;4.384;2023-11-19T15:21:17;14.10;99.90
22635;DHT22;11484;50.858;4.384;2023-11-19T15:23:43;14.10;99.90
22635;DHT22;11484;50.858;4.384;2023-11-19T15:26:08;14.10;99.90
22635;DHT22;11484;50.858;4.384;2023-11-19T15:28:36;14.20;99.90
22635;DHT22;11484;50.858;4.384;2023-11-19T15:31:01;14.20;99.90
22635;DHT22;11484;50.858;4.384;2023-11-19T15:33:28;14.10;99.90
22635;DHT22;11484;50.858;4.384;2023-11-19T15:35:53;14.10;99.90
22635;DHT22;11484;50.858;4.384;2023-11-19T15:38:19;14.00;99.90
22635;DHT22;11484;50.858;4.384;2023-11-19T15:40:45;14.10;99.90
22635;DHT22;11484;50.858;4.384;2023-11-19T15:43:11;14.10;99.90
22635;DHT22;11484;50.858;4.384;2023-11-19T15:45:36;14.10;99.90
22635;DHT22;11484;50.858;4.384;2023-11-19T15:48:04;14.10;99.90